Time;durP1;ratioP1;P1;durP2;ratioP2;P2;SDS_P1;SDS_P2;PMS_P1;PMS_P2;Temp;Humidity;BMP_temperature;BMP_pressure;BME280_temperature;BME280_humidity;BME280_pressure;Samples;Min_cycle;Max_cycle;Signal;HPM_P1;HPM_P2
2024/01/26 00:02:26;;;;;;;3.40;1.00;;;12.30;99.90;;;;;;4969591;28;20046;-82
2024/01/26 00:04:53;;;;;;;1.02;0.80;;;12.30;99.90;;;;;;5001541;28;20133;-81
2024/01/26 00:07:20;;;;;;;1.15;0.70;;;12.30;99.90;;;;;;5001885;28;20060;-81
2024/01/26 00:09:48;;;;;;;2.05;1.00;;;12.30;99.90;;;;;;5000793;28;20053;-80
2024/01/26 00:12:16;;;;;;;1.05;0.82;;;12.30;99.90;;;;;;5000714;28;20053;-81
2024/01/26 00:14:42;;;;;;;1.85;0.95;;;12.30;99.90;;;;;;5000569;28;20042;-82
2024/01/26 00:17:09;;;;;;;1.17;0.80;;;12.30;99.90;;;;;;5000425;28;20068;-81
2024/01/26 00:19:36;;;;;;;1.67;0.70;;;12.30;99.90;;;;;;5000606;28;20049;-82
2024/01/26 00:22:03;;;;;;;2.95;0.85;;;12.30;99.90;;;;;;5002090;28;20058;-81
2024/01/26 00:24:30;;;;;;;2.22;0.70;;;12.30;99.90;;;;;;4998001;28;20133;-81
2024/01/26 00:26:58;;;;;;;0.63;0.47;;;12.30;99.90;;;;;;4979100;28;20592;-81
2024/01/26 00:29:25;;;;;;;0.70;0.50;;;12.30;99.90;;;;;;4956652;28;20054;-81
2024/01/26 00:31:52;;;;;;;1.33;0.80;;;12.30;99.90;;;;;;4991446;28;20578;-81
2024/01/26 00:34:19;;;;;;;1.17;0.70;;;12.30;99.90;;;;;;4982787;28;20050;-81
2024/01/26 00:36:47;;;;;;;1.48;0.73;;;12.30;99.90;;;;;;4983646;28;20144;-82
2024/01/26 00:39:14;;;;;;;0.88;0.50;;;12.30;99.90;;;;;;4964843;28;20068;-81
2024/01/26 00:41:41;;;;;;;0.90;0.60;;;12.40;99.90;;;;;;4981475;28;20061;-81
2024/01/26 00:44:09;;;;;;;1.90;0.80;;;12.30;99.90;;;;;;4985731;28;20049;-81
2024/01/26 00:46:39;;;;;;;1.30;0.82;;;12.30;99.90;;;;;;4992444;28;20050;-80
2024/01/26 00:49:05;;;;;;;2.55;0.75;;;12.30;1.00;;;;;;4981669;28;20124;-81
2024/01/26 00:51:33;;;;;;;0.88;0.60;;;12.30;1.00;;;;;;4979001;28;20050;-81
2024/01/26 00:54:00;;;;;;;0.60;0.55;;;12.30;1.00;;;;;;4964394;28;20086;-82
2024/01/26 00:56:27;;;;;;;0.93;0.50;;;12.30;1.00;;;;;;4992328;28;20048;-82
2024/01/26 00:58:54;;;;;;;1.63;0.65;;;12.30;99.90;;;;;;4990867;28;20381;-81
2024/01/26 01:01:23;;;;;;;0.95;0.57;;;12.30;99.90;;;;;;4976767;28;20043;-81
2024/01/26 01:03:50;;;;;;;0.55;0.32;;;12.30;99.90;;;;;;4999089;28;20159;-81
2024/01/26 01:06:17;;;;;;;0.40;0.30;;;12.30;99.90;;;;;;4999118;28;20042;-81
2024/01/26 01:08:44;;;;;;;1.35;0.47;;;12.30;99.90;;;;;;4999535;28;20080;-81
2024/01/26 01:11:11;;;;;;;0.75;0.40;;;12.30;99.90;;;;;;4980676;28;20061;-81
2024/01/26 01:13:38;;;;;;;0.20;0.20;;;12.30;99.90;;;;;;5016055;28;20419;-81
2024/01/26 01:16:07;;;;;;;1.23;0.50;;;12.30;99.90;;;;;;5006479;28;20534;-81
2024/01/26 01:18:35;;;;;;;1.30;0.52;;;12.30;99.90;;;;;;4951651;28;20599;-82
2024/01/26 01:21:04;;;;;;;0.75;0.45;;;12.30;99.90;;;;;;4981859;28;20116;-81
2024/01/26 01:23:31;;;;;;;0.30;0.25;;;12.40;99.90;;;;;;4993917;28;20062;-83
2024/01/26 01:25:58;;;;;;;1.30;0.32;;;12.30;1.00;;;;;;5013955;28;20096;-83
2024/01/26 01:28:25;;;;;;;0.93;0.40;;;12.30;1.00;;;;;;4985122;28;20053;-83
2024/01/26 01:30:52;;;;;;;0.70;0.57;;;12.30;93.60;;;;;;4970251;28;20444;-85
2024/01/26 01:33:19;;;;;;;1.38;0.60;;;12.30;99.90;;;;;;4966797;28;20050;-84
2024/01/26 01:35:46;;;;;;;2.10;0.80;;;12.20;99.90;;;;;;4971210;28;20088;-86
2024/01/26 01:38:13;;;;;;;1.85;0.68;;;12.20;1.00;;;;;;4969494;28;20474;-82
2024/01/26 01:40:43;;;;;;;1.27;0.70;;;12.20;1.00;;;;;;4968447;28;20053;-83
2024/01/26 01:43:16;;;;;;;1.25;0.60;;;12.10;1.00;;;;;;5001500;28;20053;-84
2024/01/26 01:45:43;;;;;;;;;;;12.10;63.40;;;;;;5001162;28;20129;-83
2024/01/26 01:48:10;;;;;;;1.13;0.52;;;12.00;99.90;;;;;;4986979;28;19976;-83
2024/01/26 01:50:37;;;;;;;0.85;0.40;;;12.10;99.90;;;;;;4986611;28;20077;-84
2024/01/26 01:53:05;;;;;;;0.90;0.60;;;12.00;99.90;;;;;;4984732;28;20053;-84
2024/01/26 01:55:33;;;;;;;1.02;0.57;;;12.00;99.90;;;;;;4968991;28;20476;-84
2024/01/26 01:58:00;;;;;;;0.95;0.50;;;12.00;99.90;;;;;;4964168;28;20410;-83
2024/01/26 02:00:27;;;;;;;0.50;0.50;;;12.00;99.90;;;;;;4964862;28;20046;-84
2024/01/26 02:02:54;;;;;;;0.98;0.40;;;12.00;99.90;;;;;;4966759;28;20405;-85
2024/01/26 02:05:21;;;;;;;0.57;0.40;;;12.00;1.00;;;;;;4985160;28;20054;-84
2024/01/26 02:07:49;;;;;;;0.52;0.30;;;12.00;1.00;;;;;;4968922;28;20049;-83
2024/01/26 02:10:17;;;;;;;0.38;0.30;;;12.00;1.00;;;;;;4968072;28;20098;-84
2024/01/26 02:12:44;;;;;;;0.30;0.30;;;12.00;18.70;;;;;;5000198;28;20057;-83
2024/01/26 02:15:11;;;;;;;0.70;0.30;;;12.00;73.10;;;;;;5000135;28;20048;-82
2024/01/26 02:17:40;;;;;;;0.40;0.30;;;12.00;55.80;;;;;;5001207;28;20131;-84
2024/01/26 02:20:09;;;;;;;0.50;0.40;;;12.00;93.00;;;;;;5001993;28;20053;-84
2024/01/26 02:22:37;;;;;;;0.38;0.20;;;12.00;99.90;;;;;;5001387;28;20525;-84
2024/01/26 02:25:05;;;;;;;0.98;0.50;;;12.00;99.90;;;;;;5000505;28;20064;-83
2024/01/26 02:27:33;;;;;;;0.10;0.10;;;12.00;99.90;;;;;;4987014;28;20510;-83
2024/01/26 02:30:00;;;;;;;0.90;0.30;;;12.00;99.90;;;;;;4967699;28;20379;-83
2024/01/26 02:32:28;;;;;;;0.30;0.17;;;12.00;99.90;;;;;;5001970;28;20159;-83
2024/01/26 02:34:55;;;;;;;0.10;0.10;;;12.00;99.90;;;;;;5003732;28;20335;-83
2024/01/26 02:37:22;;;;;;;0.43;0.43;;;12.00;95.60;;;;;;5006140;28;20073;-82
2024/01/26 02:39:50;;;;;;;0.20;0.20;;;12.00;76.00;;;;;;4986597;28;20088;-83
2024/01/26 02:42:18;;;;;;;1.13;0.20;;;12.00;51.50;;;;;;4988104;28;20053;-84
2024/01/26 02:44:46;;;;;;;0.08;0.08;;;12.00;1.40;;;;;;4971150;28;20056;-83
2024/01/26 02:47:13;;;;;;;0.20;0.20;;;12.00;10.00;;;;;;5003793;28;20092;-83
2024/01/26 02:49:44;;;;;;;1.38;0.30;;;12.00;1.00;;;;;;5003050;28;20459;-83
2024/01/26 02:52:11;;;;;;;0.20;0.20;;;12.00;1.00;;;;;;4991314;28;20045;-83
2024/01/26 02:54:40;;;;;;;0.70;0.45;;;12.00;1.00;;;;;;5006873;28;20052;-83
2024/01/26 02:57:07;;;;;;;0.10;0.10;;;12.00;1.00;;;;;;4975448;28;20054;-83
2024/01/26 02:59:34;;;;;;;0.60;0.17;;;12.00;1.00;;;;;;4974980;28;20407;-84
2024/01/26 03:02:02;;;;;;;0.28;0.20;;;12.00;1.00;;;;;;4975422;28;20115;-83
2024/01/26 03:04:28;;;;;;;0.20;0.20;;;12.00;1.00;;;;;;5007226;28;20049;-83
2024/01/26 03:06:56;;;;;;;0.13;0.13;;;12.00;1.00;;;;;;4990867;28;20057;-83
2024/01/26 03:09:24;;;;;;;0.28;0.20;;;12.00;1.00;;;;;;5006405;28;20073;-84
2024/01/26 03:11:51;;;;;;;0.20;0.20;;;12.10;1.00;;;;;;4969635;28;20453;-84
2024/01/26 03:14:18;;;;;;;0.25;0.20;;;12.10;1.00;;;;;;4969231;28;20046;-82
2024/01/26 03:16:46;;;;;;;0.20;0.20;;;12.10;1.00;;;;;;4975363;28;20050;-83
2024/01/26 03:19:13;;;;;;;0.20;0.20;;;12.10;1.00;;;;;;4971760;28;20061;-83
2024/01/26 03:21:44;;;;;;;0.65;0.40;;;12.10;1.00;;;;;;4971745;28;20713;-83
2024/01/26 03:24:11;;;;;;;0.20;0.20;;;12.10;1.00;;;;;;4987681;28;20076;-82
2024/01/26 03:26:39;;;;;;;0.30;0.20;;;12.10;1.00;;;;;;5017542;28;20075;-83
2024/01/26 03:29:06;;;;;;;0.28;0.28;;;12.10;1.00;;;;;;4989984;28;20049;-83
2024/01/26 03:31:34;;;;;;;0.20;0.20;;;12.10;1.00;;;;;;4987222;28;21635;-84
2024/01/26 03:34:01;;;;;;;0.20;0.20;;;12.10;1.00;;;;;;4974844;28;20052;-84
2024/01/26 03:36:28;;;;;;;0.45;0.30;;;12.10;1.00;;;;;;4975703;28;20120;-83
2024/01/26 03:38:55;;;;;;;0.20;0.20;;;12.10;1.00;;;;;;4972591;28;20042;-84
2024/01/26 03:41:23;;;;;;;0.88;0.20;;;12.20;1.00;;;;;;4968473;28;20052;-83
2024/01/26 03:43:54;;;;;;;0.50;0.40;;;12.20;1.00;;;;;;4994752;28;20050;-83
2024/01/26 03:46:21;;;;;;;0.75;0.40;;;12.20;1.00;;;;;;4987489;28;20080;-84
2024/01/26 03:48:48;;;;;;;0.30;0.28;;;12.20;1.00;;;;;;4973406;28;20104;-84
2024/01/26 03:51:16;;;;;;;0.95;0.38;;;12.20;1.00;;;;;;4973343;28;20038;-84
2024/01/26 03:53:44;;;;;;;0.20;0.20;;;12.20;99.90;;;;;;4972610;28;20050;-84
2024/01/26 03:56:12;;;;;;;0.35;0.30;;;12.20;99.90;;;;;;4957975;28;20066;-84
2024/01/26 03:58:38;;;;;;;0.50;0.30;;;12.10;99.90;;;;;;4988535;28;20058;-84
2024/01/26 04:01:06;;;;;;;0.80;0.38;;;12.10;1.00;;;;;;4989876;28;20127;-84
2024/01/26 04:03:35;;;;;;;0.30;0.30;;;12.10;1.00;;;;;;4967384;28;20050;-84
2024/01/26 04:06:03;;;;;;;0.20;0.20;;;12.00;1.00;;;;;;4974460;28;20054;-82
2024/01/26 04:08:33;;;;;;;1.92;0.57;;;12.00;99.90;;;;;;4990259;28;20152;-84
2024/01/26 04:11:00;;;;;;;1.60;0.73;;;12.10;98.20;;;;;;4959688;28;20051;-84
2024/01/26 04:13:27;;;;;;;0.57;0.50;;;12.10;1.00;;;;;;4973049;28;20053;-84
2024/01/26 04:15:54;;;;;;;1.13;0.70;;;12.10;99.90;;;;;;4979159;28;20554;-84
2024/01/26 04:18:22;;;;;;;1.45;0.60;;;12.10;99.90;;;;;;4954266;28;20054;-83
2024/01/26 04:20:51;;;;;;;0.68;0.60;;;12.10;13.00;;;;;;4969129;28;20050;-84
2024/01/26 04:23:18;;;;;;;1.33;0.52;;;12.20;1.00;;;;;;4973157;28;20126;-84
2024/01/26 04:25:46;;;;;;;1.98;0.60;;;12.20;26.70;;;;;;4952224;28;20054;-83
2024/01/26 04:28:14;;;;;;;1.38;0.57;;;12.20;1.00;;;;;;4974132;28;20442;-83
2024/01/26 04:30:43;;;;;;;1.38;0.57;;;12.20;99.90;;;;;;4957166;28;20713;-84
2024/01/26 04:33:10;;;;;;;1.23;0.65;;;12.20;14.80;;;;;;4984145;28;20129;-84
2024/01/26 04:35:38;;;;;;;2.45;0.50;;;12.20;99.90;;;;;;4984451;28;20054;-85
2024/01/26 04:38:07;;;;;;;0.35;0.35;;;12.20;99.90;;;;;;4986262;28;20066;-84
2024/01/26 04:40:38;;;;;;;2.92;0.90;;;12.20;99.90;;;;;;4987266;28;20128;-83
2024/01/26 04:43:06;;;;;;;2.53;0.68;;;12.20;99.90;;;;;;4994049;28;20050;-84
2024/01/26 04:45:35;;;;;;;4.20;0.60;;;12.30;99.90;;;;;;5003250;28;20184;-84
2024/01/26 04:48:04;;;;;;;0.93;0.50;;;12.30;10.30;;;;;;4973841;28;20060;-84
2024/01/26 04:50:32;;;;;;;2.00;0.90;;;12.30;99.90;;;;;;4987380;28;20126;-84
2024/01/26 04:52:59;;;;;;;1.75;0.55;;;12.20;38.80;;;;;;5003757;28;20053;-84
2024/01/26 04:55:30;;;;;;;0.60;0.43;;;12.20;1.00;;;;;;4973327;28;20064;-85
2024/01/26 04:57:57;;;;;;;3.10;0.70;;;12.30;99.90;;;;;;5003331;28;20050;-84
2024/01/26 05:00:25;;;;;;;0.90;0.50;;;12.20;99.90;;;;;;4971039;28;20049;-84
2024/01/26 05:02:52;;;;;;;1.48;0.52;;;12.30;31.30;;;;;;4984421;28;20111;-84
2024/01/26 05:05:20;;;;;;;1.58;0.70;;;12.30;1.00;;;;;;4961722;28;20053;-85
2024/01/26 05:07:48;;;;;;;1.58;0.60;;;12.30;1.00;;;;;;5000683;28;20446;-85
2024/01/26 05:10:16;;;;;;;2.50;0.80;;;12.30;1.00;;;;;;4969740;28;20140;-84
2024/01/26 05:12:45;;;;;;;3.47;1.05;;;12.30;99.90;;;;;;4984577;28;20100;-85
2024/01/26 05:15:13;;;;;;;2.28;0.88;;;12.30;1.00;;;;;;4989069;28;20125;-85
2024/01/26 05:17:41;;;;;;;4.63;1.70;;;12.30;1.00;;;;;;4990838;28;20054;-85
2024/01/26 05:20:12;;;;;;;1.70;0.70;;;12.30;58.90;;;;;;4974113;28;20049;-85
2024/01/26 05:22:39;;;;;;;3.35;1.05;;;12.20;99.90;;;;;;4971311;28;20050;-80
2024/01/26 05:25:07;;;;;;;3.15;1.23;;;12.00;99.90;;;;;;5004582;28;20149;-82
2024/01/26 05:27:34;;;;;;;2.22;0.57;;;11.60;99.90;;;;;;5000121;28;20046;-84
2024/01/26 05:30:01;;;;;;;1.40;0.80;;;11.20;99.90;;;;;;4971323;28;20117;-83
2024/01/26 05:32:28;;;;;;;1.85;0.60;;;10.90;99.90;;;;;;5003115;28;20467;-82
2024/01/26 05:34:55;;;;;;;1.55;0.88;;;10.80;1.00;;;;;;5003825;28;20088;-81
2024/01/26 05:37:22;;;;;;;1.10;0.50;;;10.70;1.00;;;;;;4967850;28;20046;-83
2024/01/26 05:39:49;;;;;;;0.75;0.55;;;10.60;99.90;;;;;;4985542;28;20124;-83
2024/01/26 05:42:16;;;;;;;3.05;0.70;;;10.60;99.90;;;;;;4972224;28;20057;-83
2024/01/26 05:44:43;;;;;;;2.75;1.02;;;10.50;99.90;;;;;;4985049;28;20050;-82
2024/01/26 05:47:10;;;;;;;1.65;0.73;;;10.50;99.90;;;;;;5013811;28;20058;-84
2024/01/26 05:49:37;;;;;;;1.58;0.73;;;10.50;99.90;;;;;;4991298;28;20053;-83
2024/01/26 05:52:04;;;;;;;4.30;1.05;;;10.40;99.90;;;;;;4982684;28;20062;-83
2024/01/26 05:54:32;;;;;;;4.95;0.85;;;10.40;99.90;;;;;;4991110;28;20046;-83
2024/01/26 05:56:59;;;;;;;2.30;0.90;;;10.40;99.90;;;;;;4995992;28;20070;-83
2024/01/26 05:59:26;;;;;;;4.25;1.10;;;10.40;99.90;;;;;;4970914;28;20073;-83
2024/01/26 06:01:53;;;;;;;2.90;0.73;;;10.30;99.90;;;;;;4969960;28;20054;-84
2024/01/26 06:04:20;;;;;;;3.15;0.90;;;10.30;99.90;;;;;;4979441;28;20054;-84
2024/01/26 06:06:47;;;;;;;1.95;0.70;;;10.30;1.00;;;;;;4998071;28;20427;-84
2024/01/26 06:09:15;;;;;;;1.83;0.80;;;10.30;99.90;;;;;;5000361;28;20054;-84
2024/01/26 06:11:43;;;;;;;3.42;1.40;;;10.40;1.00;;;;;;4999727;28;20141;-84
2024/01/26 06:14:12;;;;;;;2.97;0.90;;;10.30;1.00;;;;;;4967343;28;20613;-84
2024/01/26 06:16:39;;;;;;;3.95;1.73;;;10.30;38.70;;;;;;4981257;28;20053;-84
2024/01/26 06:19:06;;;;;;;1.25;0.63;;;10.30;12.20;;;;;;4987697;28;20126;-83
2024/01/26 06:21:33;;;;;;;1.65;0.70;;;10.30;42.60;;;;;;5010242;28;20141;-84
2024/01/26 06:24:01;;;;;;;4.38;1.20;;;10.30;45.60;;;;;;4983833;28;20133;-83
2024/01/26 06:26:28;;;;;;;1.80;0.75;;;10.30;68.20;;;;;;4971018;28;20045;-82
2024/01/26 06:28:55;;;;;;;4.15;1.08;;;10.30;1.00;;;;;;4983494;28;20041;-83
2024/01/26 06:31:26;;;;;;;3.72;1.20;;;10.30;1.00;;;;;;4984758;28;20423;-82
2024/01/26 06:33:54;;;;;;;6.18;1.17;;;10.30;11.10;;;;;;4967215;28;20072;-83
2024/01/26 06:36:21;;;;;;;3.58;1.58;;;10.30;17.00;;;;;;4983378;28;20042;-83
2024/01/26 06:38:48;;;;;;;6.07;1.38;;;10.30;77.40;;;;;;4946985;28;20137;-82
2024/01/26 06:41:15;;;;;;;7.07;1.63;;;10.30;59.60;;;;;;4948555;28;20082;-82
2024/01/26 06:43:50;;;;;;;3.88;1.67;;;10.20;48.80;;;;;;4964085;28;20108;-81
2024/01/26 06:46:22;;;;;;;4.03;1.40;;;10.20;23.00;;;;;;4982048;28;20058;-83
2024/01/26 06:48:50;;;;;;;8.80;1.90;;;10.20;52.60;;;;;;4953514;28;20100;-82
2024/01/26 06:51:17;;;;;;;5.25;1.20;;;10.10;85.30;;;;;;5002433;28;20045;-82
2024/01/26 06:53:46;;;;;;;4.30;1.27;;;10.10;63.60;;;;;;5001114;28;20137;-82
2024/01/26 06:56:13;;;;;;;4.38;1.50;;;10.10;77.30;;;;;;4985104;28;20050;-81
2024/01/26 06:58:40;;;;;;;3.45;1.10;;;10.10;38.00;;;;;;4966161;28;20093;-82
2024/01/26 07:01:07;;;;;;;3.72;1.17;;;10.10;91.10;;;;;;4985802;28;20096;-82
2024/01/26 07:03:34;;;;;;;2.08;0.70;;;10.10;93.70;;;;;;4995985;28;20096;-82
2024/01/26 07:06:01;;;;;;;2.17;0.85;;;10.10;99.90;;;;;;4996247;28;20042;-82
2024/01/26 07:08:29;;;;;;;1.92;0.70;;;10.00;1.00;;;;;;4998064;28;20459;-82
2024/01/26 07:10:56;;;;;;;1.88;0.80;;;10.00;99.90;;;;;;4979224;28;20042;-82
2024/01/26 07:13:24;;;;;;;2.90;0.70;;;9.90;99.90;;;;;;4983226;28;20054;-82
2024/01/26 07:15:51;;;;;;;1.40;0.63;;;9.90;99.90;;;;;;4982868;28;20041;-81
2024/01/26 07:18:18;;;;;;;2.10;0.73;;;9.80;1.00;;;;;;4967246;28;20807;-82
2024/01/26 07:20:45;;;;;;;1.52;0.63;;;9.70;1.00;;;;;;4983160;28;20132;-82
2024/01/26 07:23:12;;;;;;;1.42;0.40;;;9.60;61.10;;;;;;4983706;28;20061;-81
2024/01/26 07:25:41;;;;;;;2.58;0.93;;;9.50;1.00;;;;;;5000575;28;20353;-81
2024/01/26 07:28:08;;;;;;;1.33;0.43;;;9.40;92.00;;;;;;4978869;28;20054;-81
2024/01/26 07:30:35;;;;;;;2.25;0.80;;;9.30;44.20;;;;;;4979290;28;20062;-82
2024/01/26 07:33:02;;;;;;;1.60;0.50;;;9.20;41.00;;;;;;4953854;28;20054;-81
2024/01/26 07:35:29;;;;;;;2.30;0.82;;;9.10;1.00;;;;;;4988855;28;20089;-81
2024/01/26 07:37:56;;;;;;;2.30;0.57;;;9.10;1.00;;;;;;4985160;28;20046;-81
2024/01/26 07:40:23;;;;;;;1.15;0.50;;;9.00;1.00;;;;;;4987671;28;20057;-81
2024/01/26 07:42:50;;;;;;;1.23;0.50;;;9.00;1.00;;;;;;4987602;28;20577;-81
2024/01/26 07:45:17;;;;;;;0.95;0.50;;;8.90;1.00;;;;;;5002103;28;20074;-81
2024/01/26 07:47:44;;;;;;;0.68;0.30;;;8.90;1.00;;;;;;4987030;28;20081;-82
2024/01/26 07:50:11;;;;;;;0.75;0.50;;;8.80;1.00;;;;;;4986434;28;20046;-81
2024/01/26 07:52:39;;;;;;;3.78;0.80;;;8.70;1.00;;;;;;4988565;28;20060;-81
2024/01/26 07:55:09;;;;;;;2.97;0.80;;;8.70;91.70;;;;;;4971927;28;20050;-83
2024/01/26 07:57:37;;;;;;;1.95;0.85;;;8.60;99.20;;;;;;4957500;28;20057;-84
2024/01/26 08:00:07;;;;;;;2.40;0.88;;;8.50;51.70;;;;;;4972698;28;20052;-83
2024/01/26 08:02:34;;;;;;;2.10;0.52;;;8.50;89.70;;;;;;4986189;28;20057;-83
2024/01/26 08:05:02;;;;;;;1.75;0.57;;;8.50;92.80;;;;;;4970489;28;20069;-81
2024/01/26 08:07:29;;;;;;;2.60;0.70;;;8.50;63.10;;;;;;4968241;28;20053;-81
2024/01/26 08:09:56;;;;;;;1.67;0.68;;;8.40;87.80;;;;;;4968258;28;20042;-81
2024/01/26 08:12:23;;;;;;;2.60;0.50;;;8.40;98.60;;;;;;4997016;28;20103;-82
2024/01/26 08:15:10;;;;;;;2.28;0.70;;;8.40;98.00;;;;;;4974750;28;20085;-82
2024/01/26 08:17:39;;;;;;;1.20;0.50;;;8.40;99.90;;;;;;4974744;28;20377;-81
2024/01/26 08:20:07;;;;;;;0.70;0.40;;;8.30;94.90;;;;;;4968356;28;20093;-81
2024/01/26 08:22:42;;;;;;;2.67;0.60;;;8.30;99.90;;;;;;4976845;28;20428;-82
2024/01/26 08:25:10;;;;;;;3.63;0.75;;;8.20;99.90;;;;;;4987881;28;20502;-81
2024/01/26 08:27:38;;;;;;;1.90;0.60;;;8.20;99.90;;;;;;5004890;28;20058;-81
2024/01/26 08:30:05;;;;;;;2.30;0.73;;;8.20;99.90;;;;;;4986684;28;20046;-80
2024/01/26 08:32:34;;;;;;;2.85;0.82;;;8.20;99.90;;;;;;5003917;28;20130;-80
2024/01/26 08:35:01;;;;;;;2.28;0.60;;;8.20;99.90;;;;;;4987680;28;20115;-81
2024/01/26 08:37:28;;;;;;;2.33;0.80;;;8.20;83.40;;;;;;4963234;28;20050;-80
2024/01/26 08:39:57;;;;;;;1.95;0.77;;;8.20;99.90;;;;;;4967015;28;20050;-81
2024/01/26 08:42:26;;;;;;;2.47;0.60;;;8.20;99.90;;;;;;4971355;28;20488;-81
2024/01/26 08:44:53;;;;;;;1.00;0.50;;;8.20;99.90;;;;;;4998417;28;20050;-82
2024/01/26 08:47:20;;;;;;;1.30;0.68;;;8.20;99.90;;;;;;4993618;28;20100;-80
2024/01/26 08:49:47;;;;;;;1.40;0.88;;;8.20;99.90;;;;;;4987006;28;20053;-81
2024/01/26 08:52:15;;;;;;;1.38;0.60;;;8.10;99.90;;;;;;5004392;28;20142;-80
2024/01/26 08:54:42;;;;;;;1.98;0.70;;;8.10;93.30;;;;;;5001158;28;20077;-82
2024/01/26 08:57:09;;;;;;;1.95;1.10;;;8.10;64.30;;;;;;4985617;28;20053;-81
2024/01/26 08:59:36;;;;;;;1.83;0.65;;;8.10;27.60;;;;;;4969773;28;20080;-81
2024/01/26 09:02:03;;;;;;;2.40;0.80;;;8.10;99.90;;;;;;4977730;28;20057;-82
2024/01/26 09:04:30;;;;;;;2.30;0.93;;;8.10;99.90;;;;;;4984614;28;20136;-80
2024/01/26 09:06:57;;;;;;;2.20;0.63;;;8.10;48.50;;;;;;4983859;28;20392;-81
2024/01/26 09:09:35;;;;;;;1.63;0.85;;;8.10;51.00;;;;;;5000529;28;20139;-81
2024/01/26 09:12:03;;;;;;;3.22;0.90;;;8.10;46.50;;;;;;4985088;28;20445;-82
2024/01/26 09:14:30;;;;;;;1.85;0.68;;;8.10;68.00;;;;;;4949496;28;20050;-81
2024/01/26 09:16:57;;;;;;;4.93;0.93;;;8.10;95.10;;;;;;4984231;28;20589;-82
2024/01/26 09:19:24;;;;;;;3.13;0.80;;;8.10;56.70;;;;;;5003691;28;20392;-81
2024/01/26 09:21:51;;;;;;;2.55;0.82;;;8.10;80.10;;;;;;4986278;28;20050;-81
2024/01/26 09:24:18;;;;;;;2.38;0.73;;;8.10;99.90;;;;;;4966128;28;20096;-82
2024/01/26 09:26:45;;;;;;;2.00;0.73;;;8.10;99.90;;;;;;4967081;28;20149;-81
2024/01/26 09:29:13;;;;;;;1.67;0.68;;;8.10;99.90;;;;;;4984178;28;20499;-81
2024/01/26 09:31:40;;;;;;;1.23;0.68;;;8.10;99.90;;;;;;4953579;28;20148;-81
2024/01/26 09:34:08;;;;;;;1.88;0.60;;;8.20;99.90;;;;;;4986024;28;20502;-81
2024/01/26 09:36:35;;;;;;;1.90;0.88;;;8.20;99.90;;;;;;4967206;28;20384;-81
2024/01/26 09:39:02;;;;;;;1.13;0.60;;;8.20;99.90;;;;;;4983259;28;20427;-81
2024/01/26 09:41:28;;;;;;;1.55;0.70;;;8.20;99.90;;;;;;4986576;28;20496;-81
2024/01/26 09:43:55;;;;;;;1.35;0.60;;;8.20;99.90;;;;;;4982741;28;20053;-81
2024/01/26 09:46:24;;;;;;;3.15;0.90;;;8.20;99.90;;;;;;4999230;28;20131;-81
2024/01/26 09:48:54;;;;;;;1.23;0.60;;;8.20;99.90;;;;;;4973553;28;20049;-81
2024/01/26 09:51:22;;;;;;;1.35;0.52;;;8.20;99.90;;;;;;5001389;28;20053;-80
2024/01/26 09:53:50;;;;;;;1.88;0.70;;;8.20;99.90;;;;;;4993532;28;20514;-81
2024/01/26 09:56:17;;;;;;;2.88;1.05;;;8.20;99.90;;;;;;4970002;28;20582;-80
2024/01/26 09:58:44;;;;;;;1.20;0.70;;;8.20;99.90;;;;;;4970071;28;20145;-80
2024/01/26 10:01:11;;;;;;;1.83;0.90;;;8.20;99.90;;;;;;4974408;28;20530;-81
2024/01/26 10:03:38;;;;;;;1.48;0.75;;;8.30;99.90;;;;;;4968974;28;20056;-81
2024/01/26 10:06:05;;;;;;;2.50;0.70;;;8.30;99.90;;;;;;4960770;28;20042;-80
2024/01/26 10:08:39;;;;;;;2.40;0.95;;;8.30;99.90;;;;;;4984838;28;20049;-81
2024/01/26 10:11:06;;;;;;;3.63;1.48;;;8.30;99.90;;;;;;4973171;28;20053;-80
2024/01/26 10:13:33;;;;;;;2.08;0.80;;;8.30;99.90;;;;;;4968638;28;20108;-80
2024/01/26 10:16:07;;;;;;;2.42;0.98;;;8.30;99.90;;;;;;4991625;28;20610;-81
2024/01/26 10:18:43;;;;;;;5.82;1.23;;;8.30;99.90;;;;;;4978202;28;20132;-80
2024/01/26 10:21:10;;;;;;;1.60;0.70;;;8.40;99.90;;;;;;4998013;28;20045;-81
2024/01/26 10:23:38;;;;;;;2.85;1.05;;;8.40;99.90;;;;;;4970518;28;20160;-81
2024/01/26 10:26:05;;;;;;;1.50;0.73;;;8.40;99.90;;;;;;4962226;28;20042;-80
2024/01/26 10:28:32;;;;;;;2.58;0.75;;;8.50;99.90;;;;;;4969170;28;20150;-81
2024/01/26 10:31:00;;;;;;;3.60;0.95;;;8.50;99.90;;;;;;4996961;28;20442;-82
2024/01/26 10:33:28;;;;;;;2.67;0.80;;;8.50;99.90;;;;;;4967574;28;20069;-84
2024/01/26 10:36:00;;;;;;;2.65;1.10;;;8.50;99.90;;;;;;5002382;28;20149;-80
2024/01/26 10:38:30;;;;;;;3.95;1.17;;;8.50;99.90;;;;;;4985215;28;20153;-81
2024/01/26 10:41:04;;;;;;;5.47;1.38;;;8.50;99.90;;;;;;4991554;28;20038;-80
2024/01/26 10:43:32;;;;;;;4.53;1.27;;;8.50;99.90;;;;;;4985640;28;20492;-81
2024/01/26 10:46:01;;;;;;;3.85;1.40;;;8.50;99.90;;;;;;4999368;28;20061;-80
2024/01/26 10:48:29;;;;;;;5.40;1.20;;;8.60;99.90;;;;;;5019101;28;20049;-81
2024/01/26 10:50:57;;;;;;;2.75;1.15;;;8.60;99.90;;;;;;4986957;28;20077;-82
2024/01/26 10:53:26;;;;;;;4.28;1.48;;;8.60;99.90;;;;;;5000524;28;20050;-83
2024/01/26 10:55:54;;;;;;;4.93;1.50;;;8.60;99.90;;;;;;4981492;28;20183;-83
2024/01/26 10:58:23;;;;;;;2.47;1.02;;;8.70;99.90;;;;;;4967671;28;20493;-86
2024/01/26 11:00:50;;;;;;;2.47;0.95;;;8.70;99.90;;;;;;4968543;28;20119;-82
2024/01/26 11:03:17;;;;;;;1.92;0.88;;;8.70;99.90;;;;;;4965704;28;20058;-79
2024/01/26 11:05:51;;;;;;;3.78;1.10;;;8.70;99.90;;;;;;4965478;28;20050;-80
2024/01/26 11:08:20;;;;;;;;;;;8.70;1.00;;;;;;4964195;28;20066;-80
2024/01/26 11:10:47;;;;;;;2.95;1.00;;;8.70;1.00;;;;;;5001839;28;19929;-80
2024/01/26 11:13:15;;;;;;;2.17;1.05;;;8.70;99.90;;;;;;5003963;28;20577;-79
2024/01/26 11:15:43;;;;;;;3.33;1.27;;;8.80;99.90;;;;;;4988753;28;20120;-80
2024/01/26 11:18:23;;;;;;;6.43;1.77;;;8.80;1.00;;;;;;5005167;28;20479;-80
2024/01/26 11:20:51;;;;;;;4.57;1.50;;;8.80;1.00;;;;;;5002393;28;20147;-79
2024/01/26 11:23:18;;;;;;;2.75;1.00;;;8.80;1.00;;;;;;5003721;28;20057;-79
2024/01/26 11:25:47;;;;;;;3.58;1.30;;;8.90;1.00;;;;;;5000387;28;20055;-79
2024/01/26 11:28:18;;;;;;;3.97;1.15;;;8.90;1.00;;;;;;4994536;28;20069;-79
2024/01/26 11:30:56;;;;;;;1.48;0.70;;;9.00;1.00;;;;;;5014829;28;20459;-79
2024/01/26 11:33:24;;;;;;;2.30;1.13;;;9.00;1.00;;;;;;5004411;28;20591;-81
2024/01/26 11:36:03;;;;;;;2.72;1.05;;;9.10;1.00;;;;;;4987994;28;20049;-77
2024/01/26 11:38:30;;;;;;;3.90;0.95;;;9.20;1.00;;;;;;5001512;28;20050;-77
2024/01/26 11:41:00;;;;;;;4.18;1.48;;;9.20;1.00;;;;;;5006282;28;20050;-77
2024/01/26 11:43:28;;;;;;;1.67;0.85;;;9.20;1.00;;;;;;4995933;28;20128;-76
2024/01/26 11:45:55;;;;;;;2.83;1.00;;;9.20;1.00;;;;;;4981440;28;20056;-75
2024/01/26 11:48:22;;;;;;;4.70;1.27;;;7.80;99.90;;;;;;4999850;28;20068;-76
2024/01/26 11:50:51;;;;;;;2.78;0.88;;;6.60;99.90;;;;;;4999177;28;20049;-77
2024/01/26 11:53:19;;;;;;;2.13;1.00;;;6.20;1.00;;;;;;5013749;28;20130;-77
2024/01/26 11:55:46;;;;;;;5.28;1.30;;;5.90;1.00;;;;;;4998159;28;20184;-77
2024/01/26 11:58:16;;;;;;;3.92;1.27;;;5.70;1.00;;;;;;5000051;28;20050;-78
2024/01/26 12:00:43;;;;;;;4.95;1.38;;;5.70;99.90;;;;;;4999039;28;20058;-79
2024/01/26 12:03:12;;;;;;;3.50;1.30;;;5.80;86.20;;;;;;4989425;28;20165;-78
2024/01/26 12:05:39;;;;;;;2.00;1.00;;;5.90;99.90;;;;;;4995552;28;20054;-79
2024/01/26 12:08:07;;;;;;;3.53;1.10;;;6.20;99.90;;;;;;4998273;28;20157;-79
2024/01/26 12:10:37;;;;;;;3.70;1.08;;;6.60;15.10;;;;;;4999460;28;20061;-78
2024/01/26 12:13:07;;;;;;;2.53;1.15;;;7.10;11.40;;;;;;4999294;28;20050;-79
2024/01/26 12:15:39;;;;;;;4.47;1.45;;;7.40;60.40;;;;;;4999129;28;20119;-78
2024/01/26 12:18:09;;;;;;;4.18;1.30;;;7.70;99.90;;;;;;5006496;28;20050;-78
2024/01/26 12:20:36;;;;;;;3.65;1.40;;;8.00;17.30;;;;;;4996897;28;20054;-76
2024/01/26 12:23:04;;;;;;;3.25;1.30;;;8.30;62.70;;;;;;4999179;28;20060;-78
2024/01/26 12:25:31;;;;;;;2.92;1.10;;;8.60;58.60;;;;;;4999773;28;20534;-78
2024/01/26 12:28:02;;;;;;;5.03;1.42;;;8.70;99.90;;;;;;4984603;28;20129;-78
2024/01/26 12:30:29;;;;;;;5.10;1.55;;;9.00;99.90;;;;;;4996798;28;20049;-77
2024/01/26 12:33:05;;;;;;;4.25;1.30;;;9.10;1.00;;;;;;5003331;28;20054;-80
2024/01/26 12:35:40;;;;;;;3.25;1.10;;;9.20;1.00;;;;;;4963351;28;20060;-81
2024/01/26 12:38:08;;;;;;;3.78;1.45;;;9.30;1.00;;;;;;4992838;28;20046;-80
2024/01/26 12:40:35;;;;;;;2.05;1.10;;;9.40;1.00;;;;;;4992355;28;20065;-81
2024/01/26 12:43:02;;;;;;;4.22;2.00;;;9.70;1.00;;;;;;4977995;28;20049;-81
2024/01/26 12:45:29;;;;;;;3.58;1.30;;;9.80;1.00;;;;;;4978658;28;20108;-81
2024/01/26 12:47:57;;;;;;;2.63;1.38;;;10.10;1.00;;;;;;4995026;28;20053;-80
2024/01/26 12:50:24;;;;;;;3.33;1.45;;;10.30;1.00;;;;;;4969730;28;20056;-81
2024/01/26 12:52:51;;;;;;;5.13;1.70;;;10.50;1.00;;;;;;4998953;28;20061;-80
2024/01/26 12:55:18;;;;;;;4.20;1.92;;;10.70;1.00;;;;;;4980973;28;20556;-80
2024/01/26 12:57:46;;;;;;;3.58;1.33;;;10.90;1.00;;;;;;5000317;28;20053;-81
2024/01/26 13:00:15;;;;;;;3.60;1.48;;;11.10;1.00;;;;;;4997446;28;20053;-80